sensor_id;sensor_type;location;lat;lon;timestamp;pressure;altitude;pressure_sealevel;temperature
19568;BMP280;9930;49.240;8.548;2023-12-14T00:00:22;99444.53;;;11.68
19568;BMP280;9930;49.240;8.548;2023-12-14T00:02:48;99446.13;;;11.63
19568;BMP280;9930;49.240;8.548;2023-12-14T00:05:14;99454.72;;;11.67
19568;BMP280;9930;49.240;8.548;2023-12-14T00:07:44;99460.63;;;11.64
19568;BMP280;9930;49.240;8.548;2023-12-14T00:10:10;99457.16;;;11.61
19568;BMP280;9930;49.240;8.548;2023-12-14T00:12:38;99470.75;;;11.60
19568;BMP280;9930;49.240;8.548;2023-12-14T00:15:08;99468.94;;;11.54
19568;BMP280;9930;49.240;8.548;2023-12-14T00:17:34;99468.91;;;11.51
19568;BMP280;9930;49.240;8.548;2023-12-14T00:20:02;99476.63;;;11.54
19568;BMP280;9930;49.240;8.548;2023-12-14T00:22:31;99480.84;;;11.54
19568;BMP280;9930;49.240;8.548;2023-12-14T00:24:57;99476.59;;;11.53
19568;BMP280;9930;49.240;8.548;2023-12-14T00:27:22;99484.25;;;11.53
19568;BMP280;9930;49.240;8.548;2023-12-14T00:29:53;99485.06;;;11.52
19568;BMP280;9930;49.240;8.548;2023-12-14T00:32:19;99472.19;;;11.46
19568;BMP280;9930;49.240;8.548;2023-12-14T00:34:44;99487.63;;;11.52
19568;BMP280;9930;49.240;8.548;2023-12-14T00:37:10;99488.47;;;11.51
19568;BMP280;9930;49.240;8.548;2023-12-14T00:39:36;99480.69;;;11.45
19568;BMP280;9930;49.240;8.548;2023-12-14T00:42:04;99495.28;;;11.52
19568;BMP280;9930;49.240;8.548;2023-12-14T00:44:30;99484.94;;;11.44
19568;BMP280;9930;49.240;8.548;2023-12-14T00:46:57;99492.66;;;11.47
19568;BMP280;9930;49.240;8.548;2023-12-14T00:49:24;99494.31;;;11.45
19568;BMP280;9930;49.240;8.548;2023-12-14T00:51:50;99513.16;;;11.52
19568;BMP280;9930;49.240;8.548;2023-12-14T00:54:15;99502.84;;;11.46
19568;BMP280;9930;49.240;8.548;2023-12-14T00:56:41;99520.81;;;11.52
19568;BMP280;9930;49.240;8.548;2023-12-14T00:59:07;99516.47;;;11.46
19568;BMP280;9930;49.240;8.548;2023-12-14T01:01:35;99531.03;;;11.52
19568;BMP280;9930;49.240;8.548;2023-12-14T01:04:00;99530.94;;;11.47
19568;BMP280;9930;49.240;8.548;2023-12-14T01:06:29;99541.28;;;11.53
19568;BMP280;9930;49.240;8.548;2023-12-14T01:08:56;99545.56;;;11.54
19568;BMP280;9930;49.240;8.548;2023-12-14T01:11:22;99536.09;;;11.49
19568;BMP280;9930;49.240;8.548;2023-12-14T01:13:47;99544.63;;;11.51
19568;BMP280;9930;49.240;8.548;2023-12-14T01:16:15;99561.81;;;11.58
19568;BMP280;9930;49.240;8.548;2023-12-14T01:18:41;99554.03;;;11.53
19568;BMP280;9930;49.240;8.548;2023-12-14T01:21:09;99567.81;;;11.61
19568;BMP280;9930;49.240;8.548;2023-12-14T01:23:34;99573.78;;;11.62
19568;BMP280;9930;49.240;8.548;2023-12-14T01:26:00;99563.47;;;11.56
19568;BMP280;9930;49.240;8.548;2023-12-14T01:28:26;99570.34;;;11.60
19568;BMP280;9930;49.240;8.548;2023-12-14T01:30:55;99578.06;;;11.63
19568;BMP280;9930;49.240;8.548;2023-12-14T01:33:22;99576.31;;;11.60
19568;BMP280;9930;49.240;8.548;2023-12-14T01:35:48;99582.31;;;11.62
19568;BMP280;9930;49.240;8.548;2023-12-14T01:38:13;99597.81;;;11.72
19568;BMP280;9930;49.240;8.548;2023-12-14T01:40:41;99599.53;;;11.71
19568;BMP280;9930;49.240;8.548;2023-12-14T01:43:09;99602.97;;;11.73
19568;BMP280;9930;49.240;8.548;2023-12-14T01:45:37;99584.00;;;11.62
19568;BMP280;9930;49.240;8.548;2023-12-14T01:48:05;99609.78;;;11.74
19568;BMP280;9930;49.240;8.548;2023-12-14T01:50:30;99603.75;;;11.69
19568;BMP280;9930;49.240;8.548;2023-12-14T01:53:01;99614.94;;;11.76
19568;BMP280;9930;49.240;8.548;2023-12-14T01:55:29;99625.97;;;11.75
19568;BMP280;9930;49.240;8.548;2023-12-14T01:57:57;99619.97;;;11.71
19568;BMP280;9930;49.240;8.548;2023-12-14T02:03:15;99636.28;;;11.78
19568;BMP280;9930;49.240;8.548;2023-12-14T02:05:41;99641.44;;;11.79
19568;BMP280;9930;49.240;8.548;2023-12-14T02:08:09;99646.53;;;11.79
19568;BMP280;9930;49.240;8.548;2023-12-14T02:10:37;99638.88;;;11.79
19568;BMP280;9930;49.240;8.548;2023-12-14T02:13:05;99634.47;;;11.74
19568;BMP280;9930;49.240;8.548;2023-12-14T02:15:35;99636.19;;;11.75
19568;BMP280;9930;49.240;8.548;2023-12-14T02:18:04;99648.28;;;11.80
19568;BMP280;9930;49.240;8.548;2023-12-14T02:20:30;99644.03;;;11.81
19568;BMP280;9930;49.240;8.548;2023-12-14T02:22:57;99647.41;;;11.80
19568;BMP280;9930;49.240;8.548;2023-12-14T02:25:26;99623.38;;;11.72
19568;BMP280;9930;49.240;8.548;2023-12-14T02:27:51;99644.94;;;11.84
19568;BMP280;9930;49.240;8.548;2023-12-14T02:30:20;99639.75;;;11.80
19568;BMP280;9930;49.240;8.548;2023-12-14T02:32:45;99660.31;;;11.86
19568;BMP280;9930;49.240;8.548;2023-12-14T02:35:13;99649.16;;;11.82
19568;BMP280;9930;49.240;8.548;2023-12-14T02:37:39;99642.16;;;11.75
19568;BMP280;9930;49.240;8.548;2023-12-14T02:40:09;99670.59;;;11.89
19568;BMP280;9930;49.240;8.548;2023-12-14T02:42:35;99674.88;;;11.90
19568;BMP280;9930;49.240;8.548;2023-12-14T02:45:08;99679.16;;;11.91
19568;BMP280;9930;49.240;8.548;2023-12-14T02:47:34;99688.53;;;11.92
19568;BMP280;9930;49.240;8.548;2023-12-14T02:50:02;99692.81;;;11.93
19568;BMP280;9930;49.240;8.548;2023-12-14T02:52:28;99696.22;;;11.93
19568;BMP280;9930;49.240;8.548;2023-12-14T02:54:54;99679.06;;;11.86
19568;BMP280;9930;49.240;8.548;2023-12-14T02:57:22;99682.53;;;11.90
19568;BMP280;9930;49.240;8.548;2023-12-14T02:59:51;99704.78;;;11.95
19568;BMP280;9930;49.240;8.548;2023-12-14T03:02:19;99698.69;;;11.89
19568;BMP280;9930;49.240;8.548;2023-12-14T03:04:44;99700.41;;;11.90
19568;BMP280;9930;49.240;8.548;2023-12-14T03:07:12;99716.75;;;11.96
19568;BMP280;9930;49.240;8.548;2023-12-14T03:09:41;99702.09;;;11.89
19568;BMP280;9930;49.240;8.548;2023-12-14T03:12:11;99711.56;;;11.93
19568;BMP280;9930;49.240;8.548;2023-12-14T03:14:39;99705.53;;;11.90
19568;BMP280;9930;49.240;8.548;2023-12-14T03:17:09;99726.13;;;11.97
19568;BMP280;9930;49.240;8.548;2023-12-14T03:19:41;99729.53;;;11.98
19568;BMP280;9930;49.240;8.548;2023-12-14T03:22:08;99716.56;;;11.89
19568;BMP280;9930;49.240;8.548;2023-12-14T03:24:37;99720.84;;;11.90
19568;BMP280;9930;49.240;8.548;2023-12-14T03:27:04;99720.00;;;11.89
19568;BMP280;9930;49.240;8.548;2023-12-14T03:29:32;99734.66;;;11.98
19568;BMP280;9930;49.240;8.548;2023-12-14T03:32:00;99729.38;;;11.90
19568;BMP280;9930;49.240;8.548;2023-12-14T03:34:29;99735.34;;;11.91
19568;BMP280;9930;49.240;8.548;2023-12-14T03:36:58;99760.25;;;11.99
19568;BMP280;9930;49.240;8.548;2023-12-14T03:39:27;99754.28;;;11.99
19568;BMP280;9930;49.240;8.548;2023-12-14T03:41:55;99756.81;;;11.99
19568;BMP280;9930;49.240;8.548;2023-12-14T03:44:21;99755.09;;;11.98
19568;BMP280;9930;49.240;8.548;2023-12-14T03:46:49;99767.06;;;11.99
19568;BMP280;9930;49.240;8.548;2023-12-14T03:49:15;99774.75;;;12.00
19568;BMP280;9930;49.240;8.548;2023-12-14T03:51:43;99760.94;;;11.92
19568;BMP280;9930;49.240;8.548;2023-12-14T03:54:09;99779.88;;;12.00
19568;BMP280;9930;49.240;8.548;2023-12-14T03:56:34;99780.72;;;12.01
19568;BMP280;9930;49.240;8.548;2023-12-14T03:59:02;99788.38;;;12.01
19568;BMP280;9930;49.240;8.548;2023-12-14T04:01:30;99786.59;;;11.97
19568;BMP280;9930;49.240;8.548;2023-12-14T04:03:57;99782.31;;;11.96
19568;BMP280;9930;49.240;8.548;2023-12-14T04:06:26;99799.50;;;12.03
19568;BMP280;9930;49.240;8.548;2023-12-14T04:08:51;99796.91;;;12.02
19568;BMP280;9930;49.240;8.548;2023-12-14T04:11:20;99797.66;;;11.96
19568;BMP280;9930;49.240;8.548;2023-12-14T04:13:49;99808.03;;;12.04
19568;BMP280;9930;49.240;8.548;2023-12-14T04:16:19;99807.06;;;11.98
19568;BMP280;9930;49.240;8.548;2023-12-14T04:18:45;99822.53;;;12.05
19568;BMP280;9930;49.240;8.548;2023-12-14T04:21:13;99820.84;;;12.05
19568;BMP280;9930;49.240;8.548;2023-12-14T04:23:44;99825.97;;;12.05
19568;BMP280;9930;49.240;8.548;2023-12-14T04:26:11;99823.41;;;12.05
19568;BMP280;9930;49.240;8.548;2023-12-14T04:28:36;99833.66;;;12.07
19568;BMP280;9930;49.240;8.548;2023-12-14T04:31:02;99831.94;;;12.06
19568;BMP280;9930;49.240;8.548;2023-12-14T04:33:28;99831.97;;;12.07
19568;BMP280;9930;49.240;8.548;2023-12-14T04:35:54;99830.13;;;12.02
19568;BMP280;9930;49.240;8.548;2023-12-14T04:38:20;99847.34;;;12.09
19568;BMP280;9930;49.240;8.548;2023-12-14T04:40:45;99847.34;;;12.09
19568;BMP280;9930;49.240;8.548;2023-12-14T04:43:14;99849.91;;;12.09
19568;BMP280;9930;49.240;8.548;2023-12-14T04:45:40;99845.53;;;12.05
19568;BMP280;9930;49.240;8.548;2023-12-14T04:48:06;99859.28;;;12.10
19568;BMP280;9930;49.240;8.548;2023-12-14T04:50:31;99850.63;;;12.03
19568;BMP280;9930;49.240;8.548;2023-12-14T04:52:57;99848.06;;;12.03
19568;BMP280;9930;49.240;8.548;2023-12-14T04:55:23;99870.38;;;12.10
19568;BMP280;9930;49.240;8.548;2023-12-14T04:57:48;99862.56;;;12.04
19568;BMP280;9930;49.240;8.548;2023-12-14T05:00:17;99865.16;;;12.06
19568;BMP280;9930;49.240;8.548;2023-12-14T05:02:46;99871.06;;;12.03
19568;BMP280;9930;49.240;8.548;2023-12-14T05:05:15;99885.66;;;12.07
19568;BMP280;9930;49.240;8.548;2023-12-14T05:07:42;99886.44;;;12.05
19568;BMP280;9930;49.240;8.548;2023-12-14T05:10:11;99898.47;;;12.09
19568;BMP280;9930;49.240;8.548;2023-12-14T05:12:36;99901.00;;;12.09
19568;BMP280;9930;49.240;8.548;2023-12-14T05:15:05;99899.28;;;12.08
19568;BMP280;9930;49.240;8.548;2023-12-14T05:17:31;99891.44;;;12.00
19568;BMP280;9930;49.240;8.548;2023-12-14T05:19:58;99906.03;;;12.04
19568;BMP280;9930;49.240;8.548;2023-12-14T05:22:27;99918.88;;;12.07
19568;BMP280;9930;49.240;8.548;2023-12-14T05:24:53;99925.63;;;12.05
19568;BMP280;9930;49.240;8.548;2023-12-14T05:27:21;99923.03;;;12.04
19568;BMP280;9930;49.240;8.548;2023-12-14T05:29:50;99921.19;;;11.96
19568;BMP280;9930;49.240;8.548;2023-12-14T05:32:16;99928.84;;;11.96
19568;BMP280;9930;49.240;8.548;2023-12-14T05:34:42;99938.34;;;12.02
19568;BMP280;9930;49.240;8.548;2023-12-14T05:37:12;99936.63;;;12.01
19568;BMP280;9930;49.240;8.548;2023-12-14T05:39:41;99926.13;;;11.90
19568;BMP280;9930;49.240;8.548;2023-12-14T05:42:08;99945.81;;;11.94
19568;BMP280;9930;49.240;8.548;2023-12-14T05:44:39;99938.81;;;11.86
19568;BMP280;9930;49.240;8.548;2023-12-14T05:47:04;99958.53;;;11.91
19568;BMP280;9930;49.240;8.548;2023-12-14T05:49:35;99950.63;;;11.82
19568;BMP280;9930;49.240;8.548;2023-12-14T05:52:01;99949.72;;;11.80
19568;BMP280;9930;49.240;8.548;2023-12-14T05:54:27;99965.97;;;11.82
19568;BMP280;9930;49.240;8.548;2023-12-14T05:56:52;99971.97;;;11.84
19568;BMP280;9930;49.240;8.548;2023-12-14T05:59:18;99983.03;;;11.83
19568;BMP280;9930;49.240;8.548;2023-12-14T06:01:44;99972.75;;;11.82
19568;BMP280;9930;49.240;8.548;2023-12-14T06:04:09;99985.56;;;11.83
19568;BMP280;9930;49.240;8.548;2023-12-14T06:06:38;99981.19;;;11.78
19568;BMP280;9930;49.240;8.548;2023-12-14T06:09:04;99987.03;;;11.75
19568;BMP280;9930;49.240;8.548;2023-12-14T06:11:33;99998.31;;;11.82
19568;BMP280;9930;49.240;8.548;2023-12-14T06:13:59;100009.41;;;11.82
19568;BMP280;9930;49.240;8.548;2023-12-14T06:16:26;100009.44;;;11.84
19568;BMP280;9930;49.240;8.548;2023-12-14T06:18:55;100007.59;;;11.78
19568;BMP280;9930;49.240;8.548;2023-12-14T06:21:22;100019.66;;;11.84
19568;BMP280;9930;49.240;8.548;2023-12-14T06:23:48;100023.91;;;11.83
19568;BMP280;9930;49.240;8.548;2023-12-14T06:26:16;100029.84;;;11.82
19568;BMP280;9930;49.240;8.548;2023-12-14T06:28:42;100027.16;;;11.78
19568;BMP280;9930;49.240;8.548;2023-12-14T06:31:17;100042.66;;;11.84
19568;BMP280;9930;49.240;8.548;2023-12-14T06:33:45;100054.56;;;11.83
19568;BMP280;9930;49.240;8.548;2023-12-14T06:36:11;100045.78;;;11.75
19568;BMP280;9930;49.240;8.548;2023-12-14T06:38:39;100065.63;;;11.82
19568;BMP280;9930;49.240;8.548;2023-12-14T06:41:07;100062.19;;;11.82
19568;BMP280;9930;49.240;8.548;2023-12-14T06:43:32;100063.69;;;11.75
19568;BMP280;9930;49.240;8.548;2023-12-14T06:45:58;100079.25;;;11.83
19568;BMP280;9930;49.240;8.548;2023-12-14T06:48:27;100074.16;;;11.83
19568;BMP280;9930;49.240;8.548;2023-12-14T06:50:56;100060.25;;;11.75
19568;BMP280;9930;49.240;8.548;2023-12-14T06:53:22;100058.41;;;11.69
19568;BMP280;9930;49.240;8.548;2023-12-14T06:55:48;100080.94;;;11.82
19568;BMP280;9930;49.240;8.548;2023-12-14T06:58:13;100086.88;;;11.81
19568;BMP280;9930;49.240;8.548;2023-12-14T07:00:39;100082.63;;;11.82
19568;BMP280;9930;49.240;8.548;2023-12-14T07:03:04;100089.28;;;11.77
19568;BMP280;9930;49.240;8.548;2023-12-14T07:05:33;100103.06;;;11.82
19568;BMP280;9930;49.240;8.548;2023-12-14T07:08:03;100118.41;;;11.82
19568;BMP280;9930;49.240;8.548;2023-12-14T07:10:29;100119.22;;;11.81
19568;BMP280;9930;49.240;8.548;2023-12-14T07:12:56;100115.59;;;11.74
19568;BMP280;9930;49.240;8.548;2023-12-14T07:15:22;100114.69;;;11.72
19568;BMP280;9930;49.240;8.548;2023-12-14T07:17:47;100130.28;;;11.80
19568;BMP280;9930;49.240;8.548;2023-12-14T07:20:13;100118.13;;;11.73
19568;BMP280;9930;49.240;8.548;2023-12-14T07:22:39;100121.50;;;11.72
19568;BMP280;9930;49.240;8.548;2023-12-14T07:25:05;100122.41;;;11.74
19568;BMP280;9930;49.240;8.548;2023-12-14T07:27:31;100127.50;;;11.74
19568;BMP280;9930;49.240;8.548;2023-12-14T07:29:56;100141.34;;;11.80
19568;BMP280;9930;49.240;8.548;2023-12-14T07:32:22;100137.78;;;11.75
19568;BMP280;9930;49.240;8.548;2023-12-14T07:34:48;100150.75;;;11.81
19568;BMP280;9930;49.240;8.548;2023-12-14T07:37:16;100139.47;;;11.75
19568;BMP280;9930;49.240;8.548;2023-12-14T07:39:46;100157.59;;;11.82
19568;BMP280;9930;49.240;8.548;2023-12-14T07:42:12;100154.03;;;11.77
19568;BMP280;9930;49.240;8.548;2023-12-14T07:44:42;100158.25;;;11.77
19568;BMP280;9930;49.240;8.548;2023-12-14T07:47:13;100161.78;;;11.80
19568;BMP280;9930;49.240;8.548;2023-12-14T07:49:41;100167.72;;;11.79
19568;BMP280;9930;49.240;8.548;2023-12-14T07:52:09;100188.34;;;11.85
19568;BMP280;9930;49.240;8.548;2023-12-14T07:54:39;100189.25;;;11.87
19568;BMP280;9930;49.240;8.548;2023-12-14T07:57:05;100187.56;;;11.88
19568;BMP280;9930;49.240;8.548;2023-12-14T07:59:30;100184.94;;;11.85
19568;BMP280;9930;49.240;8.548;2023-12-14T08:02:01;100202.13;;;11.90
19568;BMP280;9930;49.240;8.548;2023-12-14T08:04:29;100206.22;;;11.85
19568;BMP280;9930;49.240;8.548;2023-12-14T08:06:59;100221.78;;;11.93
19568;BMP280;9930;49.240;8.548;2023-12-14T08:09:24;100207.06;;;11.84
19568;BMP280;9930;49.240;8.548;2023-12-14T08:11:50;100228.59;;;11.92
19568;BMP280;9930;49.240;8.548;2023-12-14T08:14:17;100214.00;;;11.88
19568;BMP280;9930;49.240;8.548;2023-12-14T08:16:43;100229.44;;;11.93
19568;BMP280;9930;49.240;8.548;2023-12-14T08:19:09;100235.44;;;11.93
19568;BMP280;9930;49.240;8.548;2023-12-14T08:21:34;100242.31;;;11.96
19568;BMP280;9930;49.240;8.548;2023-12-14T08:24:05;100256.09;;;12.01
19568;BMP280;9930;49.240;8.548;2023-12-14T08:26:32;100262.13;;;12.03
19568;BMP280;9930;49.240;8.548;2023-12-14T08:28:57;100268.97;;;12.04
19568;BMP280;9930;49.240;8.548;2023-12-14T08:31:25;100277.59;;;12.08
19568;BMP280;9930;49.240;8.548;2023-12-14T08:33:52;100259.56;;;12.03
19568;BMP280;9930;49.240;8.548;2023-12-14T08:36:20;100270.88;;;12.11
19568;BMP280;9930;49.240;8.548;2023-12-14T08:38:50;100282.94;;;12.15
19568;BMP280;9930;49.240;8.548;2023-12-14T08:41:16;100288.09;;;12.17
19568;BMP280;9930;49.240;8.548;2023-12-14T08:43:42;100280.34;;;12.14
19568;BMP280;9930;49.240;8.548;2023-12-14T08:46:07;100300.16;;;12.21
19568;BMP280;9930;49.240;8.548;2023-12-14T08:48:33;100309.59;;;12.23
19568;BMP280;9930;49.240;8.548;2023-12-14T08:51:01;100307.13;;;12.26
19568;BMP280;9930;49.240;8.548;2023-12-14T08:53:27;100313.00;;;12.24
19568;BMP280;9930;49.240;8.548;2023-12-14T08:55:57;100302.66;;;12.19
19568;BMP280;9930;49.240;8.548;2023-12-14T08:58:26;100330.31;;;12.32
19568;BMP280;9930;49.240;8.548;2023-12-14T09:00:52;100336.38;;;12.36
19568;BMP280;9930;49.240;8.548;2023-12-14T09:03:21;100341.59;;;12.39
19568;BMP280;9930;49.240;8.548;2023-12-14T09:05:47;100345.09;;;12.43
19568;BMP280;9930;49.240;8.548;2023-12-14T09:08:12;100356.25;;;12.45
19568;BMP280;9930;49.240;8.548;2023-12-14T09:10:39;100345.78;;;12.37
19568;BMP280;9930;49.240;8.548;2023-12-14T09:13:08;100346.66;;;12.38
19568;BMP280;9930;49.240;8.548;2023-12-14T09:15:34;100360.69;;;12.50
19568;BMP280;9930;49.240;8.548;2023-12-14T09:18:04;100364.84;;;12.47
19568;BMP280;9930;49.240;8.548;2023-12-14T09:20:30;100376.13;;;12.53
19568;BMP280;9930;49.240;8.548;2023-12-14T09:22:56;100369.22;;;12.51
19568;BMP280;9930;49.240;8.548;2023-12-14T09:25:22;100368.31;;;12.49
19568;BMP280;9930;49.240;8.548;2023-12-14T09:27:50;100375.19;;;12.51
19568;BMP280;9930;49.240;8.548;2023-12-14T09:30:18;100398.44;;;12.59
19568;BMP280;9930;49.240;8.548;2023-12-14T09:32:44;100400.22;;;12.61
19568;BMP280;9930;49.240;8.548;2023-12-14T09:35:12;100385.53;;;12.54
19568;BMP280;9930;49.240;8.548;2023-12-14T09:37:38;100397.50;;;12.55
19568;BMP280;9930;49.240;8.548;2023-12-14T09:40:04;100398.41;;;12.57
19568;BMP280;9930;49.240;8.548;2023-12-14T09:42:37;100403.56;;;12.59
19568;BMP280;9930;49.240;8.548;2023-12-14T09:45:07;100407.09;;;12.62
19568;BMP280;9930;49.240;8.548;2023-12-14T09:47:35;100407.13;;;12.64
19568;BMP280;9930;49.240;8.548;2023-12-14T09:50:01;100430.44;;;12.73
19568;BMP280;9930;49.240;8.548;2023-12-14T09:52:27;100424.41;;;12.71
19568;BMP280;9930;49.240;8.548;2023-12-14T09:54:54;100436.59;;;12.80
19568;BMP280;9930;49.240;8.548;2023-12-14T09:57:23;100437.44;;;12.80
19568;BMP280;9930;49.240;8.548;2023-12-14T09:59:52;100440.16;;;12.85
19568;BMP280;9930;49.240;8.548;2023-12-14T10:02:18;100445.41;;;12.89
19568;BMP280;9930;49.240;8.548;2023-12-14T10:04:44;100444.63;;;12.92
19568;BMP280;9930;49.240;8.548;2023-12-14T10:07:10;100441.09;;;12.88
19568;BMP280;9930;49.240;8.548;2023-12-14T10:09:39;100456.78;;;12.99
19568;BMP280;9930;49.240;8.548;2023-12-14T10:12:11;100448.13;;;12.95
19568;BMP280;9930;49.240;8.548;2023-12-14T10:14:40;100456.03;;;13.03
19568;BMP280;9930;49.240;8.548;2023-12-14T10:17:21;100454.38;;;13.05
19568;BMP280;9930;49.240;8.548;2023-12-14T10:19:48;100446.63;;;13.02
19568;BMP280;9930;49.240;8.548;2023-12-14T10:22:15;100452.00;;;13.11
19568;BMP280;9930;49.240;8.548;2023-12-14T10:24:44;100445.09;;;13.09
19568;BMP280;9930;49.240;8.548;2023-12-14T10:27:10;100442.56;;;13.10
19568;BMP280;9930;49.240;8.548;2023-12-14T10:29:40;100461.66;;;13.20
19568;BMP280;9930;49.240;8.548;2023-12-14T10:32:07;100458.22;;;13.19
19568;BMP280;9930;49.240;8.548;2023-12-14T10:34:35;100459.97;;;13.20
19568;BMP280;9930;49.240;8.548;2023-12-14T10:37:11;100442.69;;;13.15
19568;BMP280;9930;49.240;8.548;2023-12-14T10:39:42;100467.69;;;13.22
19568;BMP280;9930;49.240;8.548;2023-12-14T10:42:09;100470.25;;;13.22
19568;BMP280;9930;49.240;8.548;2023-12-14T10:44:38;100471.75;;;13.15
19568;BMP280;9930;49.240;8.548;2023-12-14T10:47:06;100467.50;;;13.16
19568;BMP280;9930;49.240;8.548;2023-12-14T10:49:35;100488.97;;;13.19
19568;BMP280;9930;49.240;8.548;2023-12-14T10:52:03;100494.91;;;13.18
19568;BMP280;9930;49.240;8.548;2023-12-14T10:54:34;100486.06;;;13.09
19568;BMP280;9930;49.240;8.548;2023-12-14T10:57:01;100499.78;;;13.11
19568;BMP280;9930;49.240;8.548;2023-12-14T10:59:31;100509.88;;;13.06
19568;BMP280;9930;49.240;8.548;2023-12-14T11:01:57;100515.75;;;13.02
19568;BMP280;9930;49.240;8.548;2023-12-14T11:04:54;100506.97;;;12.94
19568;BMP280;9930;49.240;8.548;2023-12-14T11:07:50;100506.69;;;12.85
19568;BMP280;9930;49.240;8.548;2023-12-14T11:10:27;100506.41;;;12.76
19568;BMP280;9930;49.240;8.548;2023-12-14T11:13:03;100496.81;;;12.69
19568;BMP280;9930;49.240;8.548;2023-12-14T11:15:34;100514.97;;;12.76
19568;BMP280;9930;49.240;8.548;2023-12-14T11:23:31;100522.69;;;12.78
19568;BMP280;9930;49.240;8.548;2023-12-14T11:26:02;100515.75;;;12.74
19568;BMP280;9930;49.240;8.548;2023-12-14T11:28:33;100524.44;;;12.79
19568;BMP280;9930;49.240;8.548;2023-12-14T11:31:01;100532.28;;;12.85
19568;BMP280;9930;49.240;8.548;2023-12-14T11:33:27;100538.38;;;12.88
19568;BMP280;9930;49.240;8.548;2023-12-14T11:35:54;100543.59;;;12.91
19568;BMP280;9930;49.240;8.548;2023-12-14T11:38:24;100537.47;;;12.86
19568;BMP280;9930;49.240;8.548;2023-12-14T11:40:54;100544.38;;;12.89
19568;BMP280;9930;49.240;8.548;2023-12-14T11:43:22;100559.19;;;12.99
19568;BMP280;9930;49.240;8.548;2023-12-14T11:45:50;100547.97;;;12.95
19568;BMP280;9930;49.240;8.548;2023-12-14T11:48:18;100545.50;;;12.98
19568;BMP280;9930;49.240;8.548;2023-12-14T11:50:46;100566.94;;;13.02
19568;BMP280;9930;49.240;8.548;2023-12-14T11:53:12;100570.53;;;13.07
19568;BMP280;9930;49.240;8.548;2023-12-14T11:55:42;100572.25;;;13.08
19568;BMP280;9930;49.240;8.548;2023-12-14T11:58:12;100580.84;;;13.10
19568;BMP280;9930;49.240;8.548;2023-12-14T12:00:41;100567.81;;;13.03
19568;BMP280;9930;49.240;8.548;2023-12-14T12:05:41;100571.44;;;13.09
19568;BMP280;9930;49.240;8.548;2023-12-14T12:08:09;100579.97;;;13.10
19568;BMP280;9930;49.240;8.548;2023-12-14T12:10:40;100573.13;;;13.09
19568;BMP280;9930;49.240;8.548;2023-12-14T12:13:12;100583.38;;;13.09
19568;BMP280;9930;49.240;8.548;2023-12-14T12:15:38;100568.66;;;13.02
19568;BMP280;9930;49.240;8.548;2023-12-14T12:18:06;100579.97;;;13.10
19568;BMP280;9930;49.240;8.548;2023-12-14T12:20:33;100572.06;;;13.02
19568;BMP280;9930;49.240;8.548;2023-12-14T12:23:01;100573.81;;;13.03
19568;BMP280;9930;49.240;8.548;2023-12-14T12:25:28;100582.50;;;13.08
19568;BMP280;9930;49.240;8.548;2023-12-14T12:27:54;100592.09;;;13.15
19568;BMP280;9930;49.240;8.548;2023-12-14T12:30:21;100578.28;;;13.10
19568;BMP280;9930;49.240;8.548;2023-12-14T12:32:47;100587.09;;;13.18
19568;BMP280;9930;49.240;8.548;2023-12-14T12:35:14;100589.66;;;13.18
19568;BMP280;9930;49.240;8.548;2023-12-14T12:37:40;100581.84;;;13.15
19568;BMP280;9930;49.240;8.548;2023-12-14T12:40:09;100591.44;;;13.21
19568;BMP280;9930;49.240;8.548;2023-12-14T12:42:35;100582.72;;;13.16
19568;BMP280;9930;49.240;8.548;2023-12-14T12:45:01;100589.75;;;13.21
19568;BMP280;9930;49.240;8.548;2023-12-14T12:47:30;100600.09;;;13.24
19568;BMP280;9930;49.240;8.548;2023-12-14T12:49:56;100586.34;;;13.21
19568;BMP280;9930;49.240;8.548;2023-12-14T12:52:25;100592.38;;;13.23
19568;BMP280;9930;49.240;8.548;2023-12-14T12:54:54;100594.00;;;13.21
19568;BMP280;9930;49.240;8.548;2023-12-14T12:57:22;100606.19;;;13.28
19568;BMP280;9930;49.240;8.548;2023-12-14T12:59:48;100594.09;;;13.24
19568;BMP280;9930;49.240;8.548;2023-12-14T13:02:17;100605.41;;;13.31
19568;BMP280;9930;49.240;8.548;2023-12-14T13:04:43;100603.75;;;13.33
19568;BMP280;9930;49.240;8.548;2023-12-14T13:07:13;100612.34;;;13.35
19568;BMP280;9930;49.240;8.548;2023-12-14T13:09:41;100594.25;;;13.28
19568;BMP280;9930;49.240;8.548;2023-12-14T13:12:08;100615.81;;;13.37
19568;BMP280;9930;49.240;8.548;2023-12-14T13:14:35;100605.41;;;13.31
19568;BMP280;9930;49.240;8.548;2023-12-14T13:17:08;100618.47;;;13.40
19568;BMP280;9930;49.240;8.548;2023-12-14T13:19:34;100612.41;;;13.36
19568;BMP280;9930;49.240;8.548;2023-12-14T13:21:59;100612.25;;;13.32
19568;BMP280;9930;49.240;8.548;2023-12-14T13:24:27;100624.44;;;13.39
19568;BMP280;9930;49.240;8.548;2023-12-14T13:26:55;100634.00;;;13.44
19568;BMP280;9930;49.240;8.548;2023-12-14T13:29:22;100636.41;;;13.40
19568;BMP280;9930;49.240;8.548;2023-12-14T13:31:48;100631.25;;;13.38
19568;BMP280;9930;49.240;8.548;2023-12-14T13:34:16;100635.63;;;13.42
19568;BMP280;9930;49.240;8.548;2023-12-14T13:36:44;100631.34;;;13.41
19568;BMP280;9930;49.240;8.548;2023-12-14T13:39:12;100650.28;;;13.46
19568;BMP280;9930;49.240;8.548;2023-12-14T13:41:42;100645.00;;;13.42
19568;BMP280;9930;49.240;8.548;2023-12-14T13:44:10;100648.50;;;13.44
19568;BMP280;9930;49.240;8.548;2023-12-14T13:46:38;100659.75;;;13.49
19568;BMP280;9930;49.240;8.548;2023-12-14T13:49:04;100667.38;;;13.47
19568;BMP280;9930;49.240;8.548;2023-12-14T13:51:29;100668.25;;;13.48
19568;BMP280;9930;49.240;8.548;2023-12-14T13:53:59;100681.06;;;13.48
19568;BMP280;9930;49.240;8.548;2023-12-14T13:56:24;100684.47;;;13.47
19568;BMP280;9930;49.240;8.548;2023-12-14T13:58:53;100681.84;;;13.45
19568;BMP280;9930;49.240;8.548;2023-12-14T14:01:19;100669.59;;;13.35
19568;BMP280;9930;49.240;8.548;2023-12-14T14:03:45;100696.41;;;13.46
19568;BMP280;9930;49.240;8.548;2023-12-14T14:06:14;100684.22;;;13.39
19568;BMP280;9930;49.240;8.548;2023-12-14T14:08:40;100693.78;;;13.45
19568;BMP280;9930;49.240;8.548;2023-12-14T14:11:08;100698.09;;;13.46
19568;BMP280;9930;49.240;8.548;2023-12-14T14:13:34;100714.28;;;13.45
19568;BMP280;9930;49.240;8.548;2023-12-14T14:15:59;100704.63;;;13.36
19568;BMP280;9930;49.240;8.548;2023-12-14T14:18:27;100721.97;;;13.45
19568;BMP280;9930;49.240;8.548;2023-12-14T14:20:53;100727.06;;;13.43
19568;BMP280;9930;49.240;8.548;2023-12-14T14:23:21;100725.16;;;13.38
19568;BMP280;9930;49.240;8.548;2023-12-14T14:25:53;100726.81;;;13.36